Time;durP1;ratioP1;P1;durP2;ratioP2;P2;SDS_P1;SDS_P2;PMS_P1;PMS_P2;Temp;Humidity;BMP_temperature;BMP_pressure;BME280_temperature;BME280_humidity;BME280_pressure;Samples;Min_cycle;Max_cycle;Signal;HPM_P1;HPM_P2
2022/02/19 01:46:51;;;;;;;19.75;4.28;;;;;;;4.78;70.56;100105.69;5032828;23;20337;-83
2022/02/19 01:49:18;;;;;;;13.43;3.95;;;;;;;4.79;69.82;100112.53;4964142;29;20117;-83
2022/02/19 01:51:44;;;;;;;12.45;3.47;;;;;;;4.86;71.78;100149.09;4945322;29;20122;-83
2022/02/19 01:54:11;;;;;;;13.60;3.83;;;;;;;4.78;74.23;100135.97;4945569;29;20067;-83
2022/02/19 01:56:38;;;;;;;17.75;3.33;;;;;;;4.62;74.20;100142.50;4944326;29;20079;-83
2022/02/19 01:59:08;;;;;;;14.05;3.92;;;;;;;4.69;73.57;100145.38;4944158;29;20098;-83
2022/02/19 02:04:04;;;;;;;9.18;3.67;;;;;;;4.59;74.57;100162.66;4940572;29;20043;-79
2022/02/19 02:06:31;;;;;;;8.48;3.22;;;;;;;4.57;74.90;100185.28;4940890;29;20060;-80
2022/02/19 02:08:59;;;;;;;8.50;2.83;;;;;;;4.48;74.97;100166.13;4943664;29;20587;-80
2022/02/19 02:11:26;;;;;;;9.50;3.50;;;;;;;4.44;75.36;100163.94;4945340;29;20110;-79
2022/02/19 02:13:52;;;;;;;11.75;3.13;;;;;;;4.50;74.92;100178.97;4944732;29;20056;-78
2022/02/19 02:16:19;;;;;;;13.88;3.90;;;;;;;4.56;74.83;100183.63;4946413;29;20096;-77
2022/02/19 02:18:46;;;;;;;16.17;3.75;;;;;;;4.43;76.29;100185.59;4945381;29;20043;-79
2022/02/19 02:21:14;;;;;;;12.93;3.50;;;;;;;4.24;77.55;100192.31;4944251;29;20048;-79
2022/02/19 02:23:42;;;;;;;14.23;3.55;;;;;;;4.20;77.79;100211.66;4943881;29;20086;-79
2022/02/19 02:26:10;;;;;;;12.90;3.17;;;;;;;4.12;78.09;100215.81;4944036;29;20048;-79
2022/02/19 02:28:36;;;;;;;17.67;3.75;;;;;;;4.05;78.83;100201.72;4944115;29;20114;-80
2022/02/19 02:31:05;;;;;;;9.23;3.70;;;;;;;4.06;78.11;100205.94;4945897;29;20087;-81
2022/02/19 02:33:31;;;;;;;16.80;5.38;;;;;;;4.08;78.17;100230.75;4947047;29;20089;-83
2022/02/19 02:35:58;;;;;;;19.67;3.90;;;;;;;4.02;76.99;100207.94;4945544;29;20051;-80
2022/02/19 02:38:25;;;;;;;13.07;3.72;;;;;;;4.14;76.12;100221.69;4945892;29;20048;-80
2022/02/19 02:40:53;;;;;;;9.80;3.15;;;;;;;4.24;75.42;100225.16;4946814;29;20084;-80
2022/02/19 02:43:20;;;;;;;14.02;3.72;;;;;;;4.39;73.89;100236.03;4945770;29;20083;-81
2022/02/19 02:45:48;;;;;;;13.30;3.50;;;;;;;4.57;72.13;100244.88;4947335;29;20087;-79
2022/02/19 02:48:15;;;;;;;7.60;2.85;;;;;;;4.66;70.97;100237.16;4945649;29;20083;-82
2022/02/19 02:50:42;;;;;;;12.48;2.92;;;;;;;4.73;68.25;100229.66;4946273;29;20075;-80
2022/02/19 02:53:08;;;;;;;9.38;2.72;;;;;;;4.83;68.40;100238.31;4947731;29;20086;-82
2022/02/19 02:55:35;;;;;;;7.15;2.70;;;;;;;4.86;67.38;100242.44;4946704;29;20079;-82
2022/02/19 02:58:03;;;;;;;10.13;2.88;;;;;;;4.92;66.06;100245.34;4947333;29;20058;-82
2022/02/19 03:00:30;;;;;;;8.40;2.55;;;;;;;4.94;65.15;100235.66;4947355;29;20089;-81
2022/02/19 03:02:57;;;;;;;10.77;2.85;;;;;;;4.93;64.95;100228.00;4947789;29;20083;-81
2022/02/19 03:05:24;;;;;;;8.23;2.60;;;;;;;4.90;64.99;100243.81;4947124;29;20098;-80
2022/02/19 03:07:51;;;;;;;9.07;2.90;;;;;;;4.89;64.60;100224.03;4948846;29;20055;-79
2022/02/19 03:10:18;;;;;;;12.10;3.08;;;;;;;4.95;65.48;100242.50;4948911;29;20055;-82
2022/02/19 03:12:46;;;;;;;12.82;3.28;;;;;;;4.95;65.15;100252.88;4949875;29;20056;-82
2022/02/19 03:15:18;;;;;;;11.88;3.28;;;;;;;4.94;65.37;100259.00;4951065;29;20055;-82
2022/02/19 03:17:46;;;;;;;12.77;2.88;;;;;;;4.94;66.77;100256.41;4952199;29;20047;-82
2022/02/19 03:20:15;;;;;;;12.63;3.53;;;;;;;4.90;67.45;100264.56;4949932;29;20052;-81
2022/02/19 03:22:42;;;;;;;11.88;3.42;;;;;;;5.02;66.81;100273.09;4949655;29;20055;-82
2022/02/19 03:25:09;;;;;;;15.75;4.25;;;;;;;4.91;67.39;100269.63;4953894;29;20047;-83
2022/02/19 03:27:36;;;;;;;9.98;2.95;;;;;;;4.99;67.94;100287.97;4948362;29;20051;-82
2022/02/19 03:30:03;;;;;;;16.13;3.75;;;;;;;4.96;67.73;100296.00;4944961;29;20068;-80
2022/02/19 03:32:31;;;;;;;12.60;3.53;;;;;;;4.95;68.57;100315.09;4945089;29;20094;-80
2022/02/19 03:34:58;;;;;;;14.07;3.97;;;;;;;4.92;69.04;100307.56;4945701;29;20047;-82
2022/02/19 03:37:24;;;;;;;9.43;2.80;;;;;;;4.93;68.58;100308.38;4945905;29;20082;-81
2022/02/19 03:39:51;;;;;;;14.35;2.92;;;;;;;4.98;67.28;100325.22;4945737;29;20054;-82
2022/02/19 03:42:18;;;;;;;10.10;3.53;;;;;;;4.92;67.43;100330.06;4946871;29;20087;-83
2022/02/19 03:44:44;;;;;;;12.70;3.25;;;;;;;4.85;66.47;100350.50;4946465;29;20058;-81
2022/02/19 03:47:11;;;;;;;11.57;3.35;;;;;;;4.89;66.64;100354.47;4945679;29;20048;-80
2022/02/19 03:49:39;;;;;;;12.95;3.08;;;;;;;4.85;66.28;100353.09;4943704;29;20111;-78
2022/02/19 03:52:06;;;;;;;9.48;3.30;;;;;;;4.89;64.53;100383.00;4945873;29;20087;-80
2022/02/19 03:54:33;;;;;;;9.82;3.00;;;;;;;4.90;65.02;100376.88;4945053;29;20060;-81
2022/02/19 03:56:59;;;;;;;11.35;2.67;;;;;;;4.77;65.17;100368.44;4944585;29;20052;-82
2022/02/19 03:59:26;;;;;;;10.10;2.85;;;;;;;4.86;64.72;100383.25;4944660;29;20112;-81
2022/02/19 04:01:52;;;;;;;9.52;2.60;;;;;;;4.86;63.40;100392.81;4946156;29;20044;-82
2022/02/19 04:04:19;;;;;;;7.20;2.28;;;;;;;4.79;63.76;100389.88;4945195;29;20066;-81
2022/02/19 04:06:47;;;;;;;9.32;2.90;;;;;;;4.94;62.13;100411.97;4942875;29;20533;-80
2022/02/19 04:09:14;;;;;;;13.25;3.30;;;;;;;4.79;62.86;100399.44;4942617;29;20051;-81
2022/02/19 04:11:55;;;;;;;14.70;2.70;;;;;;;4.81;63.55;100416.50;4943537;29;20055;-82
2022/02/19 04:14:24;;;;;;;6.13;2.75;;;;;;;4.81;63.43;100413.91;4943268;29;20185;-81
2022/02/19 04:16:50;;;;;;;9.35;3.05;;;;;;;4.76;63.64;100412.63;4943930;29;20052;-80
2022/02/19 04:19:26;;;;;;;5.38;2.53;;;;;;;4.73;63.47;100415.47;4943789;29;20055;-80
2022/02/19 04:21:54;;;;;;;8.70;2.67;;;;;;;4.79;63.69;100433.94;4944830;29;20052;-79
2022/02/19 04:24:27;;;;;;;6.82;2.67;;;;;;;4.63;64.09;100425.78;4946197;29;20055;-80
2022/02/19 04:26:55;;;;;;;12.30;2.67;;;;;;;4.64;64.09;100425.66;4945492;29;20056;-79
2022/02/19 04:29:22;;;;;;;6.68;2.70;;;;;;;4.78;64.21;100447.03;4943501;29;20565;-80
2022/02/19 04:31:54;;;;;;;8.88;3.05;;;;;;;4.63;65.09;100438.75;4944897;29;20451;-79
2022/02/19 04:34:22;;;;;;;9.43;2.90;;;;;;;4.67;65.04;100463.47;4944564;29;20059;-81
2022/02/19 04:36:49;;;;;;;7.10;3.38;;;;;;;4.72;64.09;100447.56;4943217;29;20182;-80
2022/02/19 04:39:17;;;;;;;7.85;2.70;;;;;;;4.74;64.16;100456.81;4941400;29;20074;-81
2022/02/19 04:41:44;;;;;;;8.23;2.58;;;;;;;4.68;64.94;100472.88;4942168;29;20083;-80
2022/02/19 04:44:11;;;;;;;10.30;2.65;;;;;;;4.75;64.97;100462.81;4942752;29;20103;-80
2022/02/19 04:46:37;;;;;;;9.35;3.22;;;;;;;4.68;65.01;100478.06;4942635;29;20059;-78
2022/02/19 04:49:04;;;;;;;8.02;3.22;;;;;;;4.69;65.40;100484.09;4942410;29;20086;-80
2022/02/19 04:51:31;;;;;;;9.07;2.92;;;;;;;4.59;65.53;100490.00;4942679;29;20051;-80
2022/02/19 04:53:57;;;;;;;11.27;3.75;;;;;;;4.49;66.35;100480.47;4942683;29;20087;-80
2022/02/19 04:56:25;;;;;;;7.30;2.60;;;;;;;4.40;66.55;100486.34;4942647;29;20079;-80
2022/02/19 04:58:52;;;;;;;5.82;2.25;;;;;;;4.42;66.70;100498.25;4942531;29;20119;-80
2022/02/19 05:01:19;;;;;;;15.43;3.22;;;;;;;4.40;66.03;100505.31;4942358;29;20517;-79
2022/02/19 05:03:47;;;;;;;10.10;2.83;;;;;;;4.40;66.26;100530.41;4944164;29;20056;-79
2022/02/19 05:06:14;;;;;;;7.20;2.80;;;;;;;4.41;66.64;100524.28;4941704;29;20086;-81
2022/02/19 05:08:40;;;;;;;11.73;2.92;;;;;;;4.27;66.64;100509.78;4943733;29;20062;-83
2022/02/19 05:11:07;;;;;;;10.15;2.88;;;;;;;4.39;66.00;100534.75;4944220;29;20115;-82
2022/02/19 05:13:37;;;;;;;8.35;2.85;;;;;;;4.34;66.65;100532.53;4945117;29;20062;-82
2022/02/19 05:16:05;;;;;;;7.25;2.50;;;;;;;4.41;66.05;100542.41;4945029;29;20051;-83
2022/02/19 05:18:31;;;;;;;10.70;2.45;;;;;;;4.46;64.97;100538.53;4944499;29;20079;-80
2022/02/19 05:20:58;;;;;;;6.43;2.90;;;;;;;4.34;66.89;100548.06;4947761;29;20056;-82
2022/02/19 05:23:25;;;;;;;9.00;2.58;;;;;;;4.36;65.44;100554.91;4948952;29;20079;-82
2022/02/19 05:25:54;;;;;;;9.23;3.40;;;;;;;4.21;66.83;100559.50;4946990;29;20052;-81
2022/02/19 05:28:21;;;;;;;9.90;2.60;;;;;;;4.14;67.22;100564.31;4948183;29;20067;-80
2022/02/19 05:30:49;;;;;;;11.07;2.88;;;;;;;4.15;67.13;100568.56;4950266;29;20586;-81
2022/02/19 05:33:15;;;;;;;11.93;3.10;;;;;;;4.08;66.66;100562.19;4953088;29;20091;-81
2022/02/19 05:35:42;;;;;;;10.05;2.72;;;;;;;4.05;67.24;100562.44;4956546;29;20035;-82
2022/02/19 05:38:09;;;;;;;9.50;2.97;;;;;;;4.05;66.74;100559.00;4958509;29;20115;-80
2022/02/19 05:40:35;;;;;;;9.77;3.03;;;;;;;4.10;67.18;100573.25;4958482;29;20055;-82
2022/02/19 05:43:02;;;;;;;10.43;2.90;;;;;;;4.11;66.54;100576.69;4956712;29;20060;-80
2022/02/19 05:45:29;;;;;;;12.02;3.17;;;;;;;4.04;67.50;100575.47;4949156;29;20059;-81
2022/02/19 05:47:58;;;;;;;9.65;3.13;;;;;;;4.00;66.75;100574.88;4948961;29;20115;-82
2022/02/19 05:50:28;;;;;;;10.13;3.70;;;;;;;4.00;67.71;100593.84;4949123;29;20048;-83
2022/02/19 05:52:55;;;;;;;9.88;3.20;;;;;;;3.92;67.77;100592.75;4950035;29;20088;-80
2022/02/19 05:55:21;;;;;;;10.82;3.33;;;;;;;3.95;67.37;100564.03;4948811;29;20062;-82
2022/02/19 05:57:49;;;;;;;8.00;2.95;;;;;;;3.97;66.68;100585.47;4969693;29;20075;-83
2022/02/19 06:00:17;;;;;;;6.53;2.65;;;;;;;4.04;66.62;100586.66;4969631;28;20055;-82
2022/02/19 06:02:44;;;;;;;15.40;3.42;;;;;;;3.94;67.33;100596.06;4971862;29;20047;-82
2022/02/19 06:05:12;;;;;;;12.35;3.20;;;;;;;3.91;67.15;100596.28;4962023;29;20530;-82
2022/02/19 06:07:41;;;;;;;17.02;3.17;;;;;;;3.91;68.11;100601.47;4953269;29;20058;-81
2022/02/19 06:10:14;;;;;;;13.75;3.65;;;;;;;3.88;68.23;100596.50;4954489;29;20095;-82
2022/02/19 06:12:41;;;;;;;;;;;;;;;4.08;68.06;100610.56;4957671;28;20062;-84
2022/02/19 06:15:10;;;;;;;12.35;3.10;;;;;;;4.02;68.71;100601.50;4957494;29;19911;-83
2022/02/19 06:17:38;;;;;;;9.00;3.13;;;;;;;3.92;68.11;100597.94;4957850;29;20067;-82
2022/02/19 06:20:06;;;;;;;12.63;3.60;;;;;;;4.04;68.23;100615.16;4955870;29;20107;-81
2022/02/19 06:22:36;;;;;;;12.80;3.85;;;;;;;3.94;69.14;100616.75;4949162;29;20050;-82
2022/02/19 06:25:06;;;;;;;10.88;3.25;;;;;;;3.89;69.23;100608.50;4936943;29;20108;-81
2022/02/19 06:27:37;;;;;;;10.68;3.10;;;;;;;3.85;69.27;100613.09;4918706;28;434999;-82
2022/02/19 06:30:05;;;;;;;12.13;3.60;;;;;;;3.87;70.07;100631.09;4963985;28;20115;-82
2022/02/19 06:32:31;;;;;;;12.50;3.40;;;;;;;3.85;69.96;100638.97;4963536;28;20090;-79
2022/02/19 06:34:58;;;;;;;10.82;3.30;;;;;;;3.83;69.95;100634.84;4964707;28;20110;-81
2022/02/19 06:37:25;;;;;;;13.45;3.42;;;;;;;3.82;69.47;100630.59;4964543;28;20083;-81
2022/02/19 06:39:56;;;;;;;14.50;4.10;;;;;;;3.78;69.86;100647.31;4964717;28;20079;-81
2022/02/19 06:42:23;;;;;;;14.02;4.38;;;;;;;3.89;70.30;100649.94;4964772;29;20082;-82
2022/02/19 06:44:49;;;;;;;10.35;3.30;;;;;;;3.84;69.92;100655.44;4964300;29;20093;-81
2022/02/19 06:47:16;;;;;;;12.18;3.15;;;;;;;3.94;69.09;100669.38;4964197;28;20525;-81
2022/02/19 06:49:46;;;;;;;10.35;3.30;;;;;;;3.89;69.66;100655.09;4964791;28;20534;-81
2022/02/19 06:52:13;;;;;;;11.68;3.45;;;;;;;3.89;69.35;100663.69;4964783;29;20142;-81
2022/02/19 06:54:42;;;;;;;13.27;3.92;;;;;;;3.93;69.81;100682.41;4964393;28;20051;-80
2022/02/19 06:57:14;;;;;;;13.70;4.00;;;;;;;3.89;69.88;100684.41;4964943;28;20469;-80
2022/02/19 06:59:50;;;;;;;12.75;3.85;;;;;;;4.00;69.90;100694.81;4965481;29;20043;-81
2022/02/19 07:02:17;;;;;;;17.95;3.95;;;;;;;3.99;69.72;100669.03;4965061;28;20043;-83
2022/02/19 07:04:45;;;;;;;11.82;3.20;;;;;;;4.13;68.55;100702.50;4963828;29;20054;-79
2022/02/19 07:07:13;;;;;;;12.75;3.50;;;;;;;4.24;68.01;100697.38;4964053;28;20051;-81
2022/02/19 07:09:40;;;;;;;17.17;3.55;;;;;;;4.26;68.16;100695.47;4963432;28;20059;-81
2022/02/19 07:12:08;;;;;;;13.23;3.28;;;;;;;4.23;67.52;100700.91;4962694;28;20110;-82
2022/02/19 07:14:36;;;;;;;10.38;3.33;;;;;;;4.42;67.40;100709.88;4963316;28;20051;-82
2022/02/19 07:17:05;;;;;;;13.98;4.07;;;;;;;4.54;67.90;100719.34;4963645;28;20059;-82
2022/02/19 07:19:32;;;;;;;15.30;3.85;;;;;;;4.67;66.28;100714.88;4964080;28;20058;-82
2022/02/19 07:21:59;;;;;;;10.85;3.65;;;;;;;4.79;66.36;100728.66;4963972;28;20470;-83
2022/02/19 07:24:28;;;;;;;19.15;3.58;;;;;;;4.93;65.99;100746.59;4974572;28;20055;-83
2022/02/19 07:26:59;;;;;;;16.80;3.35;;;;;;;4.96;65.66;100728.19;4981870;28;20123;-82
2022/02/19 07:29:26;;;;;;;10.27;3.17;;;;;;;5.10;65.60;100734.94;4981116;28;20047;-81
2022/02/19 07:31:54;;;;;;;13.45;4.05;;;;;;;5.09;65.12;100741.06;4982594;28;20054;-81
2022/02/19 07:34:24;;;;;;;18.50;3.58;;;;;;;5.33;65.29;100750.34;4981398;28;20055;-83
2022/02/19 07:36:51;;;;;;;13.23;3.58;;;;;;;5.35;64.32;100752.81;4982234;28;20465;-81
2022/02/19 07:39:17;;;;;;;12.15;3.35;;;;;;;5.49;64.17;100770.75;4981445;28;20062;-83
2022/02/19 07:41:48;;;;;;;13.13;3.42;;;;;;;5.43;64.11;100770.41;4982790;28;20054;-82
2022/02/19 07:44:15;;;;;;;11.05;3.42;;;;;;;5.51;64.35;100786.19;4982965;28;20054;-82
2022/02/19 07:46:42;;;;;;;16.70;4.40;;;;;;;5.40;64.10;100781.03;4982389;28;20054;-83
2022/02/19 08:00:06;;;;;;;12.15;4.07;;;;;;;5.59;63.62;100787.25;4982154;28;20497;-83
2022/02/19 08:02:35;;;;;;;14.90;3.92;;;;;;;5.77;63.42;100810.94;4982894;28;20064;-81
2022/02/19 08:05:03;;;;;;;16.27;4.10;;;;;;;5.71;63.10;100813.19;4982729;28;20065;-82
2022/02/19 08:07:29;;;;;;;6.93;2.80;;;;;;;5.75;63.42;100814.59;4983109;28;20149;-82
2022/02/19 08:10:02;;;;;;;10.77;3.53;;;;;;;6.05;63.10;100812.22;4983209;28;20055;-84
2022/02/19 08:12:55;;;;;;;11.07;3.50;;;;;;;6.04;62.67;100818.34;4981652;28;20058;-84
2022/02/19 08:15:22;;;;;;;10.90;3.40;;;;;;;6.38;61.92;100818.25;4959841;29;20106;-81
2022/02/19 08:17:49;;;;;;;10.95;3.63;;;;;;;6.08;63.12;100817.16;4961772;28;20058;-83
2022/02/19 08:20:17;;;;;;;18.25;4.50;;;;;;;6.16;61.85;100822.56;4963177;28;20117;-79
2022/02/19 08:22:43;;;;;;;11.90;3.97;;;;;;;6.31;62.31;100833.50;4961207;29;20130;-80
2022/02/19 08:25:10;;;;;;;23.65;6.57;;;;;;;6.03;62.46;100819.31;4960827;29;20082;-81
2022/02/19 08:27:39;;;;;;;12.85;3.90;;;;;;;6.25;62.25;100840.00;4961184;28;20055;-84
2022/02/19 08:30:07;;;;;;;16.80;3.40;;;;;;;6.48;62.37;100834.75;4960856;28;20057;-81
2022/02/19 08:32:34;;;;;;;13.82;3.83;;;;;;;6.38;62.24;100849.44;4960955;29;20110;-82
2022/02/19 08:35:01;;;;;;;16.77;4.13;;;;;;;6.48;62.20;100845.13;4963374;29;20063;-79
2022/02/19 08:37:31;;;;;;;14.73;3.88;;;;;;;6.41;62.46;100849.19;4963947;28;20103;-82
2022/02/19 08:39:58;;;;;;;16.52;3.65;;;;;;;6.40;62.48;100847.53;4963864;28;20043;-81
2022/02/19 08:42:25;;;;;;;16.40;3.85;;;;;;;6.37;62.53;100842.56;4963814;28;20059;-80
2022/02/19 08:44:51;;;;;;;12.68;3.90;;;;;;;6.49;62.77;100847.63;4962127;28;20071;-80
2022/02/19 08:47:18;;;;;;;16.65;3.28;;;;;;;6.49;62.75;100852.00;4961656;28;20128;-81
2022/02/19 08:49:54;;;;;;;17.45;4.38;;;;;;;6.71;62.58;100849.28;4963241;28;20043;-79
2022/02/19 08:52:21;;;;;;;14.32;3.95;;;;;;;6.38;62.18;100849.44;4963264;28;20565;-80
2022/02/19 08:54:51;;;;;;;12.68;3.30;;;;;;;6.44;61.67;100869.72;4965108;28;20122;-80
2022/02/19 08:57:18;;;;;;;15.80;3.85;;;;;;;6.49;62.17;100865.81;4965884;28;20078;-81
2022/02/19 08:59:44;;;;;;;11.38;3.25;;;;;;;6.33;61.97;100871.41;4965766;28;20047;-80
2022/02/19 09:02:11;;;;;;;19.80;3.78;;;;;;;6.22;62.75;100874.03;4967261;28;20059;-81
2022/02/19 09:04:38;;;;;;;11.07;3.30;;;;;;;6.38;62.90;100883.22;4966965;29;20065;-81
2022/02/19 09:07:05;;;;;;;14.32;3.75;;;;;;;6.25;62.64;100878.16;4968405;28;20071;-78
2022/02/19 09:09:32;;;;;;;17.50;3.60;;;;;;;6.14;63.12;100883.41;4969544;29;20079;-78
2022/02/19 09:12:00;;;;;;;13.73;3.20;;;;;;;6.31;62.68;100885.47;4971623;28;20561;-78
2022/02/19 09:14:27;;;;;;;10.35;3.15;;;;;;;6.29;62.55;100898.59;4971046;29;20093;-79
2022/02/19 09:16:53;;;;;;;12.27;3.08;;;;;;;6.18;62.44;100887.38;4967813;28;20098;-78
2022/02/19 09:19:20;;;;;;;12.05;4.50;;;;;;;6.14;63.21;100897.22;4968152;29;20093;-79
2022/02/19 09:21:47;;;;;;;11.18;3.28;;;;;;;6.15;63.56;100908.41;4967345;28;20047;-80
2022/02/19 09:24:13;;;;;;;8.43;3.25;;;;;;;6.15;62.99;100896.25;4971473;28;20051;-79
2022/02/19 09:26:40;;;;;;;13.43;3.72;;;;;;;6.25;64.12;100904.97;4976662;28;20085;-81
2022/02/19 09:29:08;;;;;;;14.57;3.55;;;;;;;6.32;63.53;100893.16;4970458;28;20082;-78
2022/02/19 09:31:34;;;;;;;11.15;2.92;;;;;;;6.48;63.79;100899.72;4957553;28;20233;-80
2022/02/19 09:34:01;;;;;;;10.65;3.30;;;;;;;6.52;62.86;100899.38;4959713;29;20083;-81
2022/02/19 09:36:28;;;;;;;15.55;3.17;;;;;;;6.61;62.82;100893.44;4960495;28;20471;-80
2022/02/19 09:38:54;;;;;;;15.60;3.88;;;;;;;6.39;62.71;100908.25;4962104;29;20340;-80
2022/02/19 09:41:21;;;;;;;12.80;3.70;;;;;;;6.46;62.07;100899.84;4961673;28;20051;-80
2022/02/19 09:43:48;;;;;;;13.23;2.97;;;;;;;6.50;61.91;100897.84;4962753;28;20138;-80
2022/02/19 09:46:17;;;;;;;12.73;3.30;;;;;;;6.49;62.25;100902.22;4962755;28;20141;-80
2022/02/19 09:48:46;;;;;;;14.25;2.97;;;;;;;6.65;61.81;100902.59;4962748;28;20058;-80
2022/02/19 09:51:14;;;;;;;9.68;2.83;;;;;;;6.78;61.97;100910.25;4963433;28;20074;-80
2022/02/19 09:53:41;;;;;;;10.90;3.45;;;;;;;6.91;62.14;100902.28;4969064;28;20106;-80
2022/02/19 09:56:08;;;;;;;13.48;3.47;;;;;;;6.93;61.34;100914.19;4969648;28;20116;-79
2022/02/19 09:58:35;;;;;;;12.25;3.30;;;;;;;6.86;60.85;100912.22;4959481;28;20058;-80
2022/02/19 10:01:18;;;;;;;12.52;5.40;;;;;;;6.96;60.82;100910.53;4961787;28;20063;-78
2022/02/19 10:03:45;;;;;;;9.77;3.25;;;;;;;6.93;61.14;100906.41;4962583;28;20162;-79
2022/02/19 10:06:13;;;;;;;8.93;3.05;;;;;;;7.03;60.40;100900.44;4962117;28;20128;-79
2022/02/19 10:08:39;;;;;;;9.13;3.42;;;;;;;7.01;58.91;100917.97;4961589;28;20130;-81
2022/02/19 10:11:06;;;;;;;11.50;3.13;;;;;;;6.99;58.89;100913.69;4964365;28;20130;-80
2022/02/19 10:13:35;;;;;;;9.23;3.28;;;;;;;7.24;58.94;100911.66;4964633;28;20051;-81
2022/02/19 10:16:04;;;;;;;9.65;2.92;;;;;;;6.98;57.42;100914.66;4963936;29;20051;-81
2022/02/19 10:21:22;;;;;;;12.80;3.03;;;;;;;7.43;59.48;100905.75;4978492;28;20134;-82
2022/02/19 10:24:34;;;;;;;14.13;3.13;;;;;;;7.43;59.62;100897.94;4979748;28;20058;-81
2022/02/19 10:27:01;;;;;;;15.38;3.22;;;;;;;7.43;59.37;100903.16;4967952;28;20055;-81
2022/02/19 10:29:30;;;;;;;8.90;3.10;;;;;;;7.54;59.97;100911.72;4965317;28;20118;-82
2022/02/19 10:31:57;;;;;;;7.55;2.90;;;;;;;7.37;57.57;100912.28;4964455;28;20051;-80
2022/02/19 10:34:25;;;;;;;10.25;2.90;;;;;;;7.35;56.21;100908.16;4963319;28;20363;-80
2022/02/19 10:36:54;;;;;;;8.63;3.08;;;;;;;7.21;56.29;100904.94;4963514;28;20085;-82
2022/02/19 10:39:27;;;;;;;13.93;2.67;;;;;;;7.16;55.91;100906.25;4966103;28;20059;-80
2022/02/19 10:41:56;;;;;;;6.70;2.53;;;;;;;7.15;56.20;100915.84;4965550;28;20445;-82
2022/02/19 10:44:24;;;;;;;7.88;2.35;;;;;;;6.97;55.25;100902.59;4965070;28;20497;-82
2022/02/19 10:46:52;;;;;;;13.02;3.05;;;;;;;7.16;56.29;100914.06;4964557;28;20055;-81
2022/02/19 10:49:19;;;;;;;11.93;2.92;;;;;;;7.33;56.32;100923.91;4963518;28;20074;-82
2022/02/19 10:51:47;;;;;;;10.05;2.75;;;;;;;7.59;55.86;100930.34;4962141;28;20074;-81
2022/02/19 10:54:20;;;;;;;13.07;3.13;;;;;;;7.79;56.03;100925.25;4962741;28;20135;-81
2022/02/19 10:56:47;;;;;;;;;;;;;;;7.91;54.78;100919.00;4963258;29;20075;-80
2022/02/19 10:59:16;;;;;;;7.05;2.70;;;;;;;7.64;54.63;100933.41;4963902;29;19929;-82
2022/02/19 11:01:46;;;;;;;9.05;3.25;;;;;;;7.45;55.12;100915.09;4962627;28;20114;-82
2022/02/19 11:04:14;;;;;;;6.93;2.63;;;;;;;7.62;56.85;100943.13;4965830;29;20075;-81
2022/02/19 11:06:42;;;;;;;7.95;3.40;;;;;;;7.62;56.64;100911.84;4962599;29;20126;-81
2022/02/19 11:09:11;;;;;;;10.52;3.17;;;;;;;7.75;56.16;100927.28;4962560;28;20114;-81
2022/02/19 11:11:41;;;;;;;11.95;3.58;;;;;;;7.63;55.26;100915.28;4963179;28;20062;-82
2022/02/19 11:14:10;;;;;;;9.93;3.25;;;;;;;7.66;56.08;100926.28;4962641;28;20043;-82
2022/02/19 11:16:37;;;;;;;8.93;2.17;;;;;;;7.83;55.38;100916.22;4961868;28;20066;-82
2022/02/19 11:19:05;;;;;;;12.20;3.15;;;;;;;8.04;55.26;100922.16;4963825;28;20138;-82
2022/02/19 11:21:38;;;;;;;8.13;2.90;;;;;;;7.80;54.78;100926.88;4963608;28;20482;-81
2022/02/19 11:24:13;;;;;;;9.75;2.95;;;;;;;7.87;55.43;100922.81;4962643;29;20049;-81
2022/02/19 11:26:40;;;;;;;5.93;2.40;;;;;;;7.93;54.00;100919.69;4961564;29;20133;-82
2022/02/19 11:29:14;;;;;;;6.32;2.72;;;;;;;7.83;52.95;100903.19;4961196;28;20098;-81
2022/02/19 11:31:45;;;;;;;6.88;2.33;;;;;;;7.88;52.85;100921.84;4961928;28;20115;-82
2022/02/19 11:34:16;;;;;;;10.82;3.33;;;;;;;7.98;52.54;100915.72;4964187;29;20090;-84
2022/02/19 11:36:45;;;;;;;9.45;2.85;;;;;;;8.20;51.98;100919.06;4964474;29;20047;-85
2022/02/19 11:39:14;;;;;;;8.43;3.50;;;;;;;8.06;52.58;100911.59;4965015;28;20054;-80
2022/02/19 11:41:43;;;;;;;9.48;2.53;;;;;;;8.14;51.50;100898.75;4963595;28;20066;-82
2022/02/19 11:44:28;;;;;;;10.18;2.63;;;;;;;8.41;52.39;100912.00;4962831;28;20051;-78
2022/02/19 11:46:55;;;;;;;8.23;2.38;;;;;;;8.41;51.43;100921.63;4961248;29;20079;-82
2022/02/19 11:49:24;;;;;;;6.20;2.83;;;;;;;8.24;51.09;100912.63;4961212;29;20101;-80
2022/02/19 11:52:16;;;;;;;9.18;3.13;;;;;;;8.31;52.20;100914.56;4964301;28;20411;-81
2022/02/19 11:54:44;;;;;;;8.93;2.70;;;;;;;8.72;52.25;100914.50;4963092;28;20051;-80
2022/02/19 11:57:15;;;;;;;7.25;2.50;;;;;;;8.57;52.08;100925.31;4962959;28;20083;-81
2022/02/19 11:59:44;;;;;;;10.80;2.63;;;;;;;8.40;51.25;100919.97;4962527;28;20086;-80
2022/02/19 12:02:14;;;;;;;9.80;2.70;;;;;;;8.17;52.54;100921.94;4963280;28;20558;-81
2022/02/19 12:04:41;;;;;;;7.28;2.45;;;;;;;8.34;52.56;100915.28;4963436;29;20110;-80
2022/02/19 12:07:14;;;;;;;6.57;2.28;;;;;;;8.39;51.34;100923.53;4963224;28;20106;-81
2022/02/19 12:10:05;;;;;;;7.38;2.28;;;;;;;8.15;51.50;100916.03;4964273;29;20055;-81
2022/02/19 12:13:11;;;;;;;5.50;2.13;;;;;;;8.01;53.35;100924.25;4961114;29;20039;-82
2022/02/19 12:15:42;;;;;;;11.18;2.60;;;;;;;7.83;54.59;100929.25;4974361;29;20043;-82
2022/02/19 12:18:11;;;;;;;9.18;2.95;;;;;;;7.77;55.53;100927.16;4973303;29;20377;-82
2022/02/19 12:20:49;;;;;;;14.35;4.85;;;;;;;7.83;52.16;100913.59;4967851;28;20538;-87
2022/02/19 12:37:13;;;;;;;13.07;3.20;;;;;;;7.84;56.27;100912.66;4953972;28;20051;-82
2022/02/19 12:39:49;;;;;;;8.68;2.97;;;;;;;7.71;56.40;100907.66;4949426;28;20532;-83
2022/02/19 12:42:21;;;;;;;8.70;2.63;;;;;;;7.61;56.02;100912.81;4969905;28;20058;-82
2022/02/19 12:47:42;;;;;;;10.45;2.75;;;;;;;7.42;57.88;100904.94;4957378;29;20055;-85
2022/02/19 12:50:23;;;;;;;7.18;2.67;;;;;;;7.42;58.21;100891.09;4959959;28;20059;-84
2022/02/19 12:53:03;;;;;;;6.47;3.00;;;;;;;7.71;57.88;100891.19;4944807;29;20103;-86
2022/02/19 12:55:34;;;;;;;9.13;3.20;;;;;;;7.90;58.26;100888.69;4945543;29;20056;-83
2022/02/19 12:58:09;;;;;;;7.07;2.83;;;;;;;7.86;57.77;100879.47;4945923;29;20066;-83
2022/02/19 13:00:52;;;;;;;9.05;2.53;;;;;;;7.94;55.94;100856.19;4947810;29;20052;-84
2022/02/19 13:03:20;;;;;;;8.57;2.35;;;;;;;8.14;54.24;100883.94;4957636;28;20071;-84
2022/02/19 13:05:55;;;;;;;11.45;4.30;;;;;;;8.39;54.05;100860.94;4961812;28;20055;-82
2022/02/19 13:08:42;;;;;;;7.65;2.90;;;;;;;8.63;53.15;100863.97;4960487;29;20118;-81
2022/02/19 13:11:28;;;;;;;7.72;2.22;;;;;;;8.67;51.88;100859.28;4958792;28;20161;-81
2022/02/19 13:17:35;;;;;;;5.22;2.00;;;;;;;9.37;49.36;100832.78;4958407;29;20126;-83
2022/02/19 13:21:00;;;;;;;5.95;2.22;;;;;;;9.26;45.90;100835.56;4960282;28;20154;-82
2022/02/19 13:23:32;;;;;;;9.32;2.60;;;;;;;9.41;48.26;100849.81;4962222;29;20051;-83
2022/02/19 13:25:59;;;;;;;6.07;2.35;;;;;;;9.67;47.10;100833.47;4964175;28;20426;-84
2022/02/19 13:28:26;;;;;;;4.50;1.95;;;;;;;9.75;45.52;100844.03;4960851;28;20111;-83
2022/02/19 13:30:53;;;;;;;5.43;2.50;;;;;;;9.76;45.98;100850.91;4960694;28;20055;-83
2022/02/19 13:33:20;;;;;;;6.10;2.40;;;;;;;9.63;44.79;100849.44;4959751;28;20082;-82
2022/02/19 13:35:47;;;;;;;5.68;2.13;;;;;;;9.60;44.95;100852.34;4959989;28;20110;-81
2022/02/19 13:38:14;;;;;;;4.22;1.73;;;;;;;9.49;46.28;100841.25;4961200;29;20079;-84
2022/02/19 13:40:42;;;;;;;10.85;2.70;;;;;;;9.45;46.36;100852.97;4965987;28;20055;-83
2022/02/19 13:43:13;;;;;;;9.38;2.63;;;;;;;9.43;47.79;100842.66;4966803;28;20078;-83
2022/02/19 13:45:42;;;;;;;8.68;2.75;;;;;;;9.25;46.33;100844.38;4963615;28;20066;-82
2022/02/19 13:48:10;;;;;;;6.05;2.42;;;;;;;9.30;44.90;100844.75;4965103;29;20134;-84
2022/02/19 13:50:48;;;;;;;4.40;1.80;;;;;;;9.36;45.38;100841.59;4967553;28;20057;-87
2022/02/19 13:53:17;;;;;;;6.28;2.13;;;;;;;9.33;45.24;100847.09;4966474;29;20058;-83
2022/02/19 13:55:49;;;;;;;4.82;2.50;;;;;;;9.19;45.94;100834.47;4963179;28;20078;-83
2022/02/19 13:58:17;;;;;;;6.78;2.97;;;;;;;8.96;45.90;100849.66;4963290;29;20134;-83
2022/02/19 14:00:46;;;;;;;7.45;2.40;;;;;;;8.69;47.80;100852.97;4964462;28;20112;-82